KBTR

Baton Rouge Metropolitan, Ryan Field Airport

Baton Rouge, Louisiana, USA
METAR KBTR 231609Z 15007KT 1 1/4SM RA BR BKN010 OVC021 21/19 A3027 RMK AO2 P0002 T02110189
Observed Flight Rules
Feb-23 @ 16:09 UTC (30 minutes ago) Instrument Flight Rules
Wind Visibility Clouds Conditions
150° at 7 knots 1 1/4 miles
  • Broken at 1,000' AGL
  • Overcast at 2,100' AGL
  • Rain
  • Mist
Temperatures Readings Precipitation
Current 21°C / 70°F
Dewpoint 19°C / 66°F
Humidity 88%
Altimeter 30.27" Hg
Pressure 1025 hPa
Elevation 21
Current Rain 0.02
METAR KBTR 231609Z 15007KT 1 1/4SM RA BR BKN010 OVC021 21/19 A3027 RMK AO2 P0002 T02110189
Observed Flight Rules
Feb-23 @ 16:09 UTC
(30 minutes ago)
IFR
Wind Visibility
150° at 7 knots 1 1/4 miles
Clouds
  • Broken at 1,000' AGL
  • Overcast at 2,100' AGL
Conditions
  • Rain
  • Mist
Temperature Dewpoint
21°C / 70°F 19°C / 66°F
Humidity Altimeter Pressure
88% 30.27" Hg 1025 hPa
Current Rain
0.02